Flight Track Log - Related Links

Times and Time Zones

All times are in EDT time to prevent confusion due to time zone crossing. See the XOJ550 flight status page for this flight to view local times or setup timezone preferences in your user account.

Time Position Orientation Groundspeed Altitude Reporting Facility
EDT Latitude Longitude Course Direction KTS MPH feet Rate Location/Type
Wed 12:52:34 PM 36.0586 -115.1767 229° Southwest 171 197 3,000  Level Los Angeles Center
Wed 12:53:34 PM 36.0058 -115.2133 209° Southwest 220 253 5,100 2,066 Climbing Los Angeles Center
Wed 12:54:36 PM 35.9631 -115.2983 238° Southwest 294 338 7,200 2,256 Climbing Los Angeles Center
Wed 12:55:39 PM 35.8778 -115.3114 187° South 305 351 9,800 1,872 Climbing Los Angeles Center
Wed 12:56:41 PM 35.7858 -115.3081 178° South 316 364 11,100 1,306 Climbing Los Angeles Center
Wed 12:57:43 PM 35.6792 -115.3039 178° South 364 419 12,500 1,500 Climbing Los Angeles Center
Wed 12:58:00 PM 35.5810 -115.4154 229° Southwest  Level FlightAware Approximate
Wed 12:58:45 PM 35.5983 -115.4014 224° Southwest 398 458 14,200  Level Los Angeles Center
Wed 12:59:47 PM 35.5067 -115.5247 228° Southwest 405 466 16,400 1,984 Climbing Los Angeles Center
Wed 01:00:49 PM 35.4358 -115.6197 228° Southwest 412 474 18,300 1,742 Climbing Los Angeles Center
Wed 01:01:51 PM 35.3558 -115.7261 227° Southwest 420 483 20,000 1,588 Climbing Los Angeles Center
Wed 01:03:05 PM 35.2728 -115.8364 227° Southwest 435 501 21,900 2,015 Climbing Los Angeles Center
Wed 01:04:08 PM 35.1567 -115.9917 228° Southwest 440 506 24,600 2,112 Climbing Los Angeles Center
Wed 01:05:10 PM 35.0717 -116.1025 227° Southwest 445 512 26,300 1,161 Climbing Los Angeles Center
Wed 01:06:12 PM 34.9864 -116.2156 227° Southwest 451 519 27,000 629 Climbing Los Angeles Center
Wed 01:07:14 PM 34.8947 -116.3356 227° Southwest 471 542 27,600 532 Climbing Los Angeles Center
Wed 01:08:16 PM 34.8061 -116.4642 230° Southwest 490 564 28,100 726 Climbing Los Angeles Center
Wed 01:09:18 PM 34.7811 -116.6272 259° West 493 567 29,100 1,355 Climbing Los Angeles Center
Wed 01:10:20 PM 34.7625 -116.8239 263° West 487 560 30,900 1,403 Climbing Los Angeles Center
Wed 01:11:22 PM 34.7456 -116.9839 263° West 478 550 32,000 1,016 Climbing Los Angeles Center
Wed 01:12:24 PM 34.7289 -117.1464 263° West 481 554 33,000 960 Climbing Los Angeles Center
Wed 01:13:27 PM 34.7108 -117.3125 263° West 491 565 34,000 1,008 Climbing Los Angeles Center
Wed 01:14:29 PM 34.6933 -117.4794 263° West 493 567 35,100 1,065 Climbing Los Angeles Center
Wed 01:15:31 PM 34.6744 -117.6483 262° West 506 582 36,200 1,065 Climbing Los Angeles Center
Wed 01:16:33 PM 34.6558 -117.8158 262° West 500 575 37,300 1,065 Climbing Los Angeles Center
Wed 01:17:35 PM 34.6400 -117.9778 263° West 494 568 38,400 968 Climbing Los Angeles Center
Wed 01:18:37 PM 34.6267 -118.1500 265° West 475 547 39,300 919 Climbing Los Angeles Center
Wed 01:19:39 PM 34.6153 -118.3125 265° West 480 552 40,300 774 Climbing Los Angeles Center
Wed 01:20:41 PM 34.6036 -118.4989 266° West 469 540 40,900 435 Climbing Los Angeles Center
Wed 01:21:43 PM 34.5919 -118.6553 265° West 472 543 41,200 290 Climbing Los Angeles Center
Wed 01:22:45 PM 34.5603 -118.8069 256° West 469 540 41,500 288 Climbing Los Angeles Center
Wed 01:23:48 PM 34.5181 -118.9572 251° West 472 543 41,800 480 Climbing Los Angeles Center
Wed 01:24:50 PM 34.4789 -119.1050 252° West 467 537 42,500 581 Climbing Los Angeles Center
Wed 01:25:52 PM 34.4311 -119.2775 251° West 455 524 43,000 242 Climbing Los Angeles Center
Wed 01:26:54 PM 34.3933 -119.4192 252° West 448 516 43,000  Level Los Angeles Center
Wed 01:27:56 PM 34.3547 -119.5631 252° West 451 519 43,000  Level Los Angeles Center
Wed 01:28:58 PM 34.3153 -119.7050 251° West 448 516 43,000  Level Los Angeles Center
Wed 01:30:00 PM 34.2764 -119.8494 252° West 453 521 43,000  Level Los Angeles Center
Wed 01:31:02 PM 34.2289 -120.0214 252° West 452 520 43,000  Level Los Angeles Center
Wed 01:32:04 PM 34.1881 -120.1661 251° West 459 528 43,000  Level Los Angeles Center
Wed 01:33:07 PM 34.1475 -120.3106 251° West 459 528 43,000  Level Los Angeles Center
Wed 01:34:09 PM 34.1025 -120.4689 251° West 456 525 43,000  Level Los Angeles Center
Wed 01:35:11 PM 34.0597 -120.6158 251° West 458 527 43,000  Level Los Angeles Center
Wed 01:36:13 PM 34.0181 -120.7608 251° West 458 527 43,000  Level Los Angeles Center
Wed 01:37:15 PM 33.9778 -120.9036 251° West 450 518 43,000  Level Los Angeles Center
Wed 01:38:17 PM 33.9367 -121.0469 251° West 451 519 43,000  Level Los Angeles Center
Wed 01:39:19 PM 33.8961 -121.1908 251° West 454 522 43,000  Level Los Angeles Center
Wed 01:40:21 PM 33.8536 -121.3317 250° West 448 516 43,000  Level Los Angeles Center
Wed 01:41:35 PM 33.8033 -121.5033 251° West 452 520 43,000  Level Los Angeles Center
Wed 01:42:38 PM 33.7533 -121.6761 251° West 455 524 43,000  Level Los Angeles Center
Wed 01:43:40 PM 33.7117 -121.8203 251° West 458 527 43,000  Level Los Angeles Center
Wed 01:44:42 PM 33.6678 -121.9647 250° West 462 532 43,000  Level Los Angeles Center
Wed 01:45:44 PM 33.6242 -122.1086 250° West 460 529 43,000  Level Los Angeles Center
Wed 01:46:46 PM 33.5906 -122.2236 251° West 457 526 43,000  Level Los Angeles Center
Wed 01:48:00 PM 33.5314 -122.4239 251° West 454 522 43,000  Level Los Angeles Center
Wed 01:49:03 PM 33.4803 -122.5925 250° West 450 518 43,000  Level Los Angeles Center
Wed 01:51:00 PM 33.4229 -122.8675 256° West  Level FlightAware Approximate
Wed 01:58:00 PM 33.2121 -123.8517 256° West  Level FlightAware Approximate
Wed 01:59:00 PM 33.1813 -123.9919 255° West  Level FlightAware Approximate
Wed 02:00:00 PM 33.1504 -124.1320 255° West  Level FlightAware Approximate
Wed 02:01:00 PM 33.1194 -124.2720 255° West  Level FlightAware Approximate
Wed 02:02:00 PM 33.0881 -124.4119 255° West  Level FlightAware Approximate
Wed 02:03:00 PM 33.0594 -124.5494 255° West  Level FlightAware Approximate
Wed 02:04:00 PM 33.0280 -124.6892 255° West  Level FlightAware Approximate
Wed 02:04:17 PM 33.0667 -124.5167 255° West 459 528 43,000  Level Oakland Oceanic (ODAPS)
Wed 02:05:00 PM 32.9966 -124.8289 255° West  Level FlightAware Approximate
Wed 02:06:00 PM 32.9649 -124.9684 255° West  Level FlightAware Approximate
Wed 02:07:00 PM 32.9331 -125.1079 255° West  Level FlightAware Approximate
Wed 02:08:00 PM 32.9014 -125.2466 255° West  Level FlightAware Approximate
Wed 02:09:00 PM 32.8695 -125.3851 255° West  Level FlightAware Approximate
Wed 02:10:00 PM 32.7994 -125.6871 254° West 459 528 43,000  Level FlightAware Transoceanic
Wed 02:11:00 PM 32.7653 -125.8329 254° West 459 528 43,000  Level FlightAware Transoceanic
Wed 02:12:00 PM 32.7309 -125.9786 254° West 459 528 43,000  Level FlightAware Transoceanic
Wed 02:13:00 PM 32.6964 -126.1242 254° West 459 528 43,000  Level FlightAware Transoceanic
Wed 02:14:00 PM 32.6618 -126.2696 254° West 459 528 43,000  Level FlightAware Transoceanic
Wed 02:15:00 PM 32.6269 -126.4150 254° West 459 528 43,000  Level FlightAware Transoceanic
Wed 02:16:00 PM 32.5919 -126.5602 254° West 459 528 43,000  Level FlightAware Transoceanic
Wed 02:17:00 PM 32.5567 -126.7054 254° West 459 528 43,000  Level FlightAware Transoceanic
Wed 02:18:00 PM 32.5214 -126.8504 254° West 459 528 43,000  Level FlightAware Transoceanic
Wed 02:19:00 PM 32.4859 -126.9953 254° West 459 528 43,000  Level FlightAware Transoceanic
Wed 02:20:00 PM 32.4502 -127.1401 254° West 459 528 43,000  Level FlightAware Transoceanic
Wed 02:21:00 PM 32.4144 -127.2847 254° West 459 528 43,000  Level FlightAware Transoceanic
Wed 02:22:00 PM 32.3784 -127.4293 254° West 459 528 43,000  Level FlightAware Transoceanic
Wed 02:23:00 PM 32.3422 -127.5737 253° West 459 528 43,000  Level FlightAware Transoceanic
Wed 02:24:00 PM 32.3059 -127.7180 253° West 459 528 43,000  Level FlightAware Transoceanic
Wed 02:25:00 PM 32.2694 -127.8622 253° West 459 528 43,000  Level FlightAware Transoceanic
Wed 02:26:00 PM 32.2327 -128.0063 253° West 459 528 43,000  Level FlightAware Transoceanic
Wed 02:27:00 PM 32.1959 -128.1503 253° West 459 528 43,000  Level FlightAware Transoceanic
Wed 02:28:00 PM 32.1589 -128.2941 253° West 459 528 43,000  Level FlightAware Transoceanic
Wed 02:29:00 PM 32.1218 -128.4379 253° West 459 528 43,000  Level FlightAware Transoceanic
Wed 02:30:00 PM 32.0844 -128.5815 253° West 459 528 43,000  Level FlightAware Transoceanic
Wed 02:31:00 PM 32.0470 -128.7250 253° West 459 528 43,000  Level FlightAware Transoceanic
Wed 02:32:00 PM 32.0093 -128.8684 253° West 459 528 43,000  Level FlightAware Transoceanic
Wed 02:33:00 PM 31.9715 -129.0117 253° West 459 528 43,000  Level FlightAware Transoceanic
Wed 02:34:00 PM 31.9336 -129.1548 253° West 459 528 43,000  Level FlightAware Transoceanic
Wed 02:35:00 PM 31.8955 -129.2979 253° West 459 528 43,000  Level FlightAware Transoceanic
Wed 02:36:00 PM 31.8572 -129.4408 252° West 459 528 43,000  Level FlightAware Transoceanic
Wed 02:37:00 PM 31.8188 -129.5836 252° West 459 528 43,000  Level FlightAware Transoceanic
Wed 02:38:00 PM 31.7802 -129.7263 252° West 459 528 43,000  Level FlightAware Transoceanic
Wed 02:39:00 PM 31.7414 -129.8688 252° West 459 528 43,000  Level FlightAware Transoceanic
Wed 02:40:00 PM 31.7025 -130.0112 252° West 459 528 43,000  Level FlightAware Transoceanic
Wed 02:41:00 PM 31.6634 -130.1536 252° West 459 528 43,000  Level FlightAware Transoceanic
Wed 02:42:00 PM 31.6242 -130.2958 252° West 459 528 43,000  Level FlightAware Transoceanic
Wed 02:43:00 PM 31.5848 -130.4378 252° West 459 528 43,000  Level FlightAware Transoceanic
Wed 02:44:00 PM 31.5452 -130.5798 252° West 459 528 43,000  Level FlightAware Transoceanic
Wed 02:45:00 PM 31.5056 -130.7216 252° West 459 528 43,000  Level FlightAware Transoceanic
Wed 02:46:00 PM 31.4657 -130.8634 252° West 459 528 43,000  Level FlightAware Transoceanic
Wed 02:47:00 PM 31.4257 -131.0049 252° West 459 528 43,000  Level FlightAware Transoceanic
Wed 02:48:00 PM 31.3855 -131.1464 252° West 459 528 43,000  Level FlightAware Transoceanic
Wed 02:49:00 PM 31.3452 -131.2878 251° West 459 528 43,000  Level FlightAware Transoceanic
Wed 02:50:00 PM 31.3047 -131.4290 251° West 459 528 43,000  Level FlightAware Transoceanic
Wed 02:51:00 PM 31.2641 -131.5701 251° West 459 528 43,000  Level FlightAware Transoceanic
Wed 02:52:00 PM 31.2233 -131.7111 251° West 459 528 43,000  Level FlightAware Transoceanic
Wed 02:53:00 PM 31.1823 -131.8520 251° West 459 528 43,000  Level FlightAware Transoceanic
Wed 02:54:00 PM 31.1413 -131.9927 251° West 459 528 43,000  Level FlightAware Transoceanic
Wed 02:55:00 PM 31.1000 -132.1333 251° West 459 528 43,000  Level FlightAware Transoceanic
Wed 02:56:00 PM 31.0614 -132.2644 251° West 459 528 43,000  Level FlightAware Transoceanic
Wed 02:57:00 PM 31.0228 -132.3954 251° West 459 528 43,000  Level FlightAware Transoceanic
Wed 02:58:00 PM 30.9839 -132.5263 251° West 459 528 43,000  Level FlightAware Transoceanic
Wed 02:59:00 PM 30.9450 -132.6570 251° West 459 528 43,000  Level FlightAware Transoceanic
Wed 03:00:00 PM 30.9059 -132.7877 251° West 459 528 43,000  Level FlightAware Transoceanic
Wed 03:01:00 PM 30.8667 -132.9183 251° West 459 528 43,000  Level FlightAware Transoceanic
Wed 03:01:11 PM 31.1000 -132.1333 251° West 443 510 43,000  Level Oakland Oceanic (ODAPS)
Wed 03:02:00 PM 30.8273 -133.0487 251° West 459 528 43,000  Level FlightAware Transoceanic
Wed 03:03:00 PM 30.7878 -133.1791 251° West 459 528 43,000  Level FlightAware Transoceanic
Wed 03:04:00 PM 30.7482 -133.3093 250° West 459 528 43,000  Level FlightAware Transoceanic
Wed 03:05:00 PM 30.7085 -133.4394 250° West 459 528 43,000  Level FlightAware Transoceanic
Wed 03:06:00 PM 30.6686 -133.5694 250° West 459 528 43,000  Level FlightAware Transoceanic
Wed 03:07:00 PM 30.6940 -133.4867 250° West 443 510 43,000  Level FlightAware Transoceanic
Wed 03:08:00 PM 30.6527 -133.6214 250° West 443 510 43,000  Level FlightAware Transoceanic
Wed 03:09:00 PM 30.6112 -133.7560 250° West 443 510 43,000  Level FlightAware Transoceanic
Wed 03:10:00 PM 30.5695 -133.8905 250° West 443 510 43,000  Level FlightAware Transoceanic
Wed 03:11:00 PM 30.5277 -134.0249 250° West 443 510 43,000  Level FlightAware Transoceanic
Wed 03:12:00 PM 30.4858 -134.1591 250° West 443 510 43,000  Level FlightAware Transoceanic
Wed 03:13:00 PM 30.4437 -134.2932 250° West 443 510 43,000  Level FlightAware Transoceanic
Wed 03:14:00 PM 30.4015 -134.4272 250° West 443 510 43,000  Level FlightAware Transoceanic
Wed 03:15:00 PM 30.3592 -134.5611 250° West 443 510 43,000  Level FlightAware Transoceanic
Wed 03:16:00 PM 30.3167 -134.6949 250° West 443 510 43,000  Level FlightAware Transoceanic
Wed 03:17:00 PM 30.2741 -134.8286 250° West 443 510 43,000  Level FlightAware Transoceanic
Wed 03:18:00 PM 30.2314 -134.9621 250° West 443 510 43,000  Level FlightAware Transoceanic
Wed 03:19:00 PM 30.1885 -135.0956 250° West 443 510 43,000  Level FlightAware Transoceanic
Wed 03:20:00 PM 30.1455 -135.2289 250° West 443 510 43,000  Level FlightAware Transoceanic
Wed 03:21:00 PM 30.1024 -135.3621 249° West 443 510 43,000  Level FlightAware Transoceanic
Wed 03:22:00 PM 30.0591 -135.4952 249° West 443 510 43,000  Level FlightAware Transoceanic
Wed 03:23:00 PM 30.0157 -135.6281 249° West 443 510 43,000  Level FlightAware Transoceanic
Wed 03:24:00 PM 29.9721 -135.7610 249° West 443 510 43,000  Level FlightAware Transoceanic
Wed 03:25:00 PM 29.9284 -135.8937 249° West 443 510 43,000  Level FlightAware Transoceanic
Wed 03:26:00 PM 29.8846 -136.0263 249° West 443 510 43,000  Level FlightAware Transoceanic
Wed 03:27:00 PM 29.8407 -136.1588 249° West 443 510 43,000  Level FlightAware Transoceanic
Wed 03:28:00 PM 29.7966 -136.2912 249° West 443 510 43,000  Level FlightAware Transoceanic
Wed 03:29:00 PM 29.7524 -136.4235 249° West 443 510 43,000  Level FlightAware Transoceanic
Wed 03:30:00 PM 29.7080 -136.5556 249° West 443 510 43,000  Level FlightAware Transoceanic
Wed 03:31:00 PM 29.6636 -136.6877 249° West 443 510 43,000  Level FlightAware Transoceanic
Wed 03:32:00 PM 29.6190 -136.8196 249° West 443 510 43,000  Level FlightAware Transoceanic
Wed 03:33:00 PM 29.5742 -136.9514 249° West 443 510 43,000  Level FlightAware Transoceanic
Wed 03:34:00 PM 29.5294 -137.0831 249° West 443 510 43,000  Level FlightAware Transoceanic
Wed 03:35:00 PM 29.4844 -137.2146 249° West 443 510 43,000  Level FlightAware Transoceanic
Wed 03:36:00 PM 29.4393 -137.3461 248° West 443 510 43,000  Level FlightAware Transoceanic
Wed 03:37:00 PM 29.3940 -137.4774 248° West 443 510 43,000  Level FlightAware Transoceanic
Wed 03:38:00 PM 29.3486 -137.6086 248° West 443 510 43,000  Level FlightAware Transoceanic
Wed 03:39:00 PM 29.3031 -137.7397 248° West 443 510 43,000  Level FlightAware Transoceanic
Wed 03:40:00 PM 29.2575 -137.8707 248° West 443 510 43,000  Level FlightAware Transoceanic
Wed 03:41:00 PM 29.2117 -138.0016 248° West 443 510 43,000  Level FlightAware Transoceanic
Wed 03:42:00 PM 29.1658 -138.1323 248° West 443 510 43,000  Level FlightAware Transoceanic
Wed 03:43:00 PM 29.1198 -138.2629 248° West 443 510 43,000  Level FlightAware Transoceanic
Wed 03:44:00 PM 29.0737 -138.3934 248° West 443 510 43,000  Level FlightAware Transoceanic
Wed 03:45:00 PM 29.0274 -138.5238 248° West 443 510 43,000  Level FlightAware Transoceanic
Wed 03:46:00 PM 28.9810 -138.6541 248° West 443 510 43,000  Level FlightAware Transoceanic
Wed 03:47:00 PM 28.9345 -138.7843 248° West 443 510 43,000  Level FlightAware Transoceanic
Wed 03:48:00 PM 28.8878 -138.9143 248° West 443 510 43,000  Level FlightAware Transoceanic
Wed 03:49:00 PM 28.8411 -139.0443 248° West 443 510 43,000  Level FlightAware Transoceanic
Wed 03:50:00 PM 28.7942 -139.1741 248° West 443 510 43,000  Level FlightAware Transoceanic
Wed 03:51:00 PM 28.7471 -139.3038 247° West 443 510 43,000  Level FlightAware Transoceanic
Wed 03:52:00 PM 28.7000 -139.4333 247° West 443 510 43,000  Level FlightAware Transoceanic
Wed 03:53:00 PM 28.6547 -139.5565 247° West 443 510 43,000  Level FlightAware Transoceanic
Wed 03:54:00 PM 28.6093 -139.6795 247° West 443 510 43,000  Level FlightAware Transoceanic
Wed 03:55:00 PM 28.5637 -139.8024 247° West 443 510 43,000  Level FlightAware Transoceanic
Wed 03:56:00 PM 28.5181 -139.9252 247° West 443 510 43,000  Level FlightAware Transoceanic
Wed 03:57:00 PM 28.4724 -140.0480 247° West 443 510 43,000  Level FlightAware Transoceanic
Wed 03:58:00 PM 28.4265 -140.1706 247° West 443 510 43,000  Level FlightAware Transoceanic
Wed 03:59:00 PM 28.3805 -140.2931 247° West 443 510 43,000  Level FlightAware Transoceanic
Wed 04:00:00 PM 28.3345 -140.4155 247° West 443 510 43,000  Level FlightAware Transoceanic
Wed 04:01:00 PM 28.2883 -140.5377 247° West 443 510 43,000  Level FlightAware Transoceanic
Wed 04:01:22 PM 28.7000 -139.4333 247° West 415 478 43,000  Level Oakland Oceanic (ODAPS)
Wed 04:02:00 PM 28.2420 -140.6599 247° West 443 510 43,000  Level FlightAware Transoceanic
Wed 04:03:00 PM 28.1956 -140.7820 247° West 443 510 43,000  Level FlightAware Transoceanic
Wed 04:04:00 PM 28.1491 -140.9040 247° West 443 510 43,000  Level FlightAware Transoceanic
Wed 04:05:00 PM 28.1024 -141.0258 247° West 443 510 43,000  Level FlightAware Transoceanic
Wed 04:06:00 PM 28.0557 -141.1476 246° West 443 510 43,000  Level FlightAware Transoceanic
Wed 04:07:00 PM 28.1131 -140.9980 247° West 415 478 43,000  Level FlightAware Transoceanic
Wed 04:08:00 PM 28.0672 -141.1177 246° West 415 478 43,000  Level FlightAware Transoceanic
Wed 04:09:00 PM 28.0212 -141.2372 246° West 415 478 43,000  Level FlightAware Transoceanic
Wed 04:10:00 PM 27.9751 -141.3567 246° West 415 478 43,000  Level FlightAware Transoceanic
Wed 04:11:00 PM 27.9289 -141.4760 246° West 415 478 43,000  Level FlightAware Transoceanic
Wed 04:12:00 PM 27.8826 -141.5952 246° West 415 478 43,000  Level FlightAware Transoceanic
Wed 04:13:00 PM 27.8362 -141.7144 246° West 415 478 43,000  Level FlightAware Transoceanic
Wed 04:14:00 PM 27.7897 -141.8334 246° West 415 478 43,000  Level FlightAware Transoceanic
Wed 04:15:00 PM 27.7431 -141.9523 246° West 415 478 43,000  Level FlightAware Transoceanic
Wed 04:16:00 PM 27.6964 -142.0712 246° West 415 478 43,000  Level FlightAware Transoceanic
Wed 04:17:00 PM 27.6496 -142.1899 246° West 415 478 43,000  Level FlightAware Transoceanic
Wed 04:18:00 PM 27.6027 -142.3085 246° West 415 478 43,000  Level FlightAware Transoceanic
Wed 04:19:00 PM 27.5557 -142.4270 246° West 415 478 43,000  Level FlightAware Transoceanic
Wed 04:20:00 PM 27.5086 -142.5455 246° West 415 478 43,000  Level FlightAware Transoceanic
Wed 04:21:00 PM 27.4614 -142.6638 246° West 415 478 43,000  Level FlightAware Transoceanic
Wed 04:22:00 PM 27.4141 -142.7820 246° West 415 478 43,000  Level FlightAware Transoceanic
Wed 04:23:00 PM 27.3667 -142.9001 246° West 415 478 43,000  Level FlightAware Transoceanic
Wed 04:24:00 PM 27.3192 -143.0181 246° West 415 478 43,000  Level FlightAware Transoceanic
Wed 04:25:00 PM 27.2716 -143.1361 246° West 415 478 43,000  Level FlightAware Transoceanic
Wed 04:26:00 PM 27.2239 -143.2539 245° Southwest 415 478 43,000  Level FlightAware Transoceanic
Wed 04:27:00 PM 27.1761 -143.3716 245° Southwest 415 478 43,000  Level FlightAware Transoceanic
Wed 04:28:00 PM 27.1282 -143.4892 245° Southwest 415 478 43,000  Level FlightAware Transoceanic
Wed 04:29:00 PM 27.0802 -143.6067 245° Southwest 415 478 43,000  Level FlightAware Transoceanic
Wed 04:30:00 PM 27.0321 -143.7241 245° Southwest 415 478 43,000  Level FlightAware Transoceanic
Wed 04:31:00 PM 26.9839 -143.8414 245° Southwest 415 478 43,000  Level FlightAware Transoceanic
Wed 04:32:00 PM 26.9356 -143.9586 245° Southwest 415 478 43,000  Level FlightAware Transoceanic
Wed 04:33:00 PM 26.8872 -144.0758 245° Southwest 415 478 43,000  Level FlightAware Transoceanic
Wed 04:34:00 PM 26.8387 -144.1928 245° Southwest 415 478 43,000  Level FlightAware Transoceanic
Wed 04:35:00 PM 26.7901 -144.3097 245° Southwest 415 478 43,000  Level FlightAware Transoceanic
Wed 04:36:00 PM 26.7415 -144.4265 245° Southwest 415 478 43,000  Level FlightAware Transoceanic
Wed 04:37:00 PM 26.6927 -144.5432 245° Southwest 415 478 43,000  Level FlightAware Transoceanic
Wed 04:38:00 PM 26.6438 -144.6598 245° Southwest 415 478 43,000  Level FlightAware Transoceanic
Wed 04:39:00 PM 26.5949 -144.7763 245° Southwest 415 478 43,000  Level FlightAware Transoceanic
Wed 04:40:00 PM 26.5458 -144.8927 245° Southwest 415 478 43,000  Level FlightAware Transoceanic
Wed 04:41:00 PM 26.4967 -145.0090 245° Southwest 415 478 43,000  Level FlightAware Transoceanic
Wed 04:42:00 PM 26.4474 -145.1252 245° Southwest 415 478 43,000  Level FlightAware Transoceanic
Wed 04:43:00 PM 26.3981 -145.2413 245° Southwest 415 478 43,000  Level FlightAware Transoceanic
Wed 04:44:00 PM 26.3486 -145.3574 245° Southwest 415 478 43,000  Level FlightAware Transoceanic
Wed 04:45:00 PM 26.2991 -145.4733 244° Southwest 415 478 43,000  Level FlightAware Transoceanic
Wed 04:46:00 PM 26.2495 -145.5891 244° Southwest 415 478 43,000  Level FlightAware Transoceanic
Wed 04:47:00 PM 26.1998 -145.7048 244° Southwest 415 478 43,000  Level FlightAware Transoceanic
Wed 04:48:00 PM 26.1500 -145.8204 244° Southwest 415 478 43,000  Level FlightAware Transoceanic
Wed 04:49:00 PM 26.1001 -145.9359 244° Southwest 415 478 43,000  Level FlightAware Transoceanic
Wed 04:50:00 PM 26.0501 -146.0513 244° Southwest 415 478 43,000  Level FlightAware Transoceanic
Wed 04:51:00 PM 26.0000 -146.1667 244° Southwest 415 478 43,000  Level FlightAware Transoceanic
Wed 04:52:00 PM 25.9473 -146.2883 244° Southwest 415 478 43,000  Level FlightAware Transoceanic
Wed 04:53:00 PM 25.8945 -146.4098 244° Southwest 415 478 43,000  Level FlightAware Transoceanic
Wed 04:54:00 PM 25.8416 -146.5313 244° Southwest 415 478 43,000  Level FlightAware Transoceanic
Wed 04:55:00 PM 25.7886 -146.6526 244° Southwest 415 478 43,000  Level FlightAware Transoceanic
Wed 04:55:19 PM 26.0000 -146.1667 244° Southwest 428 493 43,000  Level Oakland Oceanic (ODAPS)
Wed 04:56:00 PM 25.7355 -146.7738 244° Southwest 415 478 43,000  Level FlightAware Transoceanic
Wed 04:57:00 PM 25.6822 -146.8949 244° Southwest 415 478 43,000  Level FlightAware Transoceanic
Wed 04:58:00 PM 25.6289 -147.0159 244° Southwest 415 478 43,000  Level FlightAware Transoceanic
Wed 04:59:00 PM 25.5755 -147.1367 244° Southwest 415 478 43,000  Level FlightAware Transoceanic
Wed 05:00:00 PM 25.5220 -147.2575 244° Southwest 415 478 43,000  Level FlightAware Transoceanic
Wed 05:01:00 PM 25.4782 -147.3562 244° Southwest 428 493 43,000  Level FlightAware Transoceanic
Wed 05:02:00 PM 25.4255 -147.4746 244° Southwest 428 493 43,000  Level FlightAware Transoceanic
Wed 05:03:00 PM 25.3727 -147.5929 244° Southwest 428 493 43,000  Level FlightAware Transoceanic
Wed 05:04:00 PM 25.3197 -147.7111 244° Southwest 428 493 43,000  Level FlightAware Transoceanic
Wed 05:05:00 PM 25.2668 -147.8292 244° Southwest 428 493 43,000  Level FlightAware Transoceanic
Wed 05:06:00 PM 25.2137 -147.9471 244° Southwest 428 493 43,000  Level FlightAware Transoceanic
Wed 05:07:00 PM 25.1605 -148.0650 243° Southwest 428 493 43,000  Level FlightAware Transoceanic
Wed 05:08:00 PM 25.1072 -148.1828 243° Southwest 428 493 43,000  Level FlightAware Transoceanic
Wed 05:09:00 PM 25.0538 -148.3004 243° Southwest 428 493 43,000  Level FlightAware Transoceanic
Wed 05:10:00 PM 25.0004 -148.4180 243° Southwest 428 493 43,000  Level FlightAware Transoceanic
Wed 05:11:00 PM 24.9468 -148.5354 243° Southwest 428 493 43,000  Level FlightAware Transoceanic
Wed 05:12:00 PM 24.8932 -148.6528 243° Southwest 428 493 43,000  Level FlightAware Transoceanic
Wed 05:13:00 PM 24.8395 -148.7701 243° Southwest 428 493 43,000  Level FlightAware Transoceanic
Wed 05:14:00 PM 24.7856 -148.8872 243° Southwest 428 493 43,000  Level FlightAware Transoceanic
Wed 05:15:00 PM 24.7317 -149.0043 243° Southwest 428 493 43,000  Level FlightAware Transoceanic
Wed 05:16:00 PM 24.6777 -149.1212 243° Southwest 428 493 43,000  Level FlightAware Transoceanic
Wed 05:17:00 PM 24.6236 -149.2381 243° Southwest 428 493 43,000  Level FlightAware Transoceanic
Wed 05:18:00 PM 24.5694 -149.3548 243° Southwest 428 493 43,000  Level FlightAware Transoceanic
Wed 05:19:00 PM 24.5151 -149.4714 243° Southwest 428 493 43,000  Level FlightAware Transoceanic
Wed 05:20:00 PM 24.4608 -149.5880 243° Southwest 428 493 43,000  Level FlightAware Transoceanic
Wed 05:21:00 PM 24.4063 -149.7044 243° Southwest 428 493 43,000  Level FlightAware Transoceanic
Wed 05:22:00 PM 24.3517 -149.8208 243° Southwest 428 493 43,000  Level FlightAware Transoceanic
Wed 05:23:00 PM 24.2971 -149.9370 243° Southwest 428 493 43,000  Level FlightAware Transoceanic
Wed 05:24:00 PM 24.2424 -150.0531 243° Southwest 428 493 43,000  Level FlightAware Transoceanic
Wed 05:25:00 PM 24.1876 -150.1692 243° Southwest 428 493 43,000  Level FlightAware Transoceanic
Wed 05:26:00 PM 24.1327 -150.2851 243° Southwest 428 493 43,000  Level FlightAware Transoceanic
Wed 05:27:00 PM 24.0777 -150.4010 243° Southwest 428 493 43,000  Level FlightAware Transoceanic
Wed 05:28:00 PM 24.0226 -150.5167 242° Southwest 428 493 43,000  Level FlightAware Transoceanic
Wed 05:29:00 PM 23.9674 -150.6324 242° Southwest 428 493 43,000  Level FlightAware Transoceanic
Wed 05:30:00 PM 23.9122 -150.7479 242° Southwest 428 493 43,000  Level FlightAware Transoceanic
Wed 05:31:00 PM 23.8568 -150.8634 242° Southwest 428 493 43,000  Level FlightAware Transoceanic
Wed 05:32:00 PM 23.8014 -150.9787 242° Southwest 428 493 43,000  Level FlightAware Transoceanic
Wed 05:33:00 PM 23.7459 -151.0940 242° Southwest 428 493 43,000  Level FlightAware Transoceanic
Wed 05:34:00 PM 23.6903 -151.2091 242° Southwest 428 493 43,000  Level FlightAware Transoceanic
Wed 05:35:00 PM 23.6346 -151.3242 242° Southwest 428 493 43,000  Level FlightAware Transoceanic
Wed 05:36:00 PM 23.5789 -151.4391 242° Southwest 428 493 43,000  Level FlightAware Transoceanic
Wed 05:37:00 PM 23.5230 -151.5540 242° Southwest 428 493 43,000  Level FlightAware Transoceanic
Wed 05:38:00 PM 23.4671 -151.6687 242° Southwest 428 493 43,000  Level FlightAware Transoceanic
Wed 05:39:00 PM 23.4111 -151.7834 242° Southwest 428 493 43,000  Level FlightAware Transoceanic
Wed 05:40:00 PM 23.3550 -151.8980 242° Southwest 428 493 43,000  Level FlightAware Transoceanic
Wed 05:41:00 PM 23.2988 -152.0124 242° Southwest 428 493 43,000  Level FlightAware Transoceanic
Wed 05:42:00 PM 23.2425 -152.1268 242° Southwest 428 493 43,000  Level FlightAware Transoceanic
Wed 05:43:00 PM 23.1862 -152.2411 242° Southwest 428 493 43,000  Level FlightAware Transoceanic
Wed 05:44:00 PM 23.1298 -152.3553 242° Southwest 428 493 43,000  Level FlightAware Transoceanic
Wed 05:45:00 PM 23.0733 -152.4693 242° Southwest 428 493 43,000  Level FlightAware Transoceanic
Wed 05:46:00 PM 23.0167 -152.5833 242° Southwest 428 493 43,000  Level FlightAware Transoceanic
Wed 05:47:00 PM 22.9580 -152.7020 242° Southwest 428 493 43,000  Level FlightAware Transoceanic
Wed 05:48:00 PM 22.8993 -152.8206 242° Southwest 428 493 43,000  Level FlightAware Transoceanic
Wed 05:49:00 PM 22.8404 -152.9391 242° Southwest 428 493 43,000  Level FlightAware Transoceanic
Wed 05:49:02 PM 22.9500 -152.7333 241° Southwest 440 506 43,000  Level Honolulu Center
Wed 05:50:00 PM 22.7815 -153.0575 242° Southwest 428 493 43,000  Level FlightAware Transoceanic
Wed 05:50:02 PM 22.9000 -152.8167 237° Southwest 430 495 43,000  Level Honolulu Center
Wed 05:51:00 PM 22.7225 -153.1758 242° Southwest 428 493 43,000  Level FlightAware Transoceanic
Wed 05:51:03 PM 22.8333 -152.9667 244° Southwest 420 483 43,000  Level Honolulu Center
Wed 05:52:00 PM 22.6634 -153.2939 242° Southwest 428 493 43,000  Level FlightAware Transoceanic
Wed 05:53:00 PM 22.6042 -153.4120 241° Southwest 428 493 43,000  Level FlightAware Transoceanic
Wed 05:53:04 PM 22.8000 -153.2167 262° West 440 506 43,000  Level Honolulu Center
Wed 05:54:00 PM 22.5450 -153.5300 241° Southwest 428 493 43,000  Level FlightAware Transoceanic
Wed 05:54:04 PM 22.7833 -153.3500 262° West 440 506 43,000  Level Honolulu Center
Wed 05:55:04 PM 22.7667 -153.4833 262° West 440 506 43,000  Level Honolulu Center
Wed 05:56:04 PM 22.7500 -153.6167 262° West 440 506 43,000  Level Honolulu Center
Wed 05:57:04 PM 22.7167 -153.7500 255° West 440 506 43,000  Level Honolulu Center
Wed 05:58:05 PM 22.7000 -153.8833 262° West 440 506 43,000  Level Honolulu Center
Wed 05:59:05 PM 22.6833 -154.0000 261° West 440 506 43,000  Level Honolulu Center
Wed 06:00:05 PM 22.6667 -154.1333 262° West 450 518 43,000  Level Honolulu Center
Wed 06:01:06 PM 22.6333 -154.2667 255° West 440 506 43,000  Level Honolulu Center
Wed 06:02:06 PM 22.6167 -154.4000 262° West 440 506 43,000  Level Honolulu Center
Wed 06:03:06 PM 22.6000 -154.5333 262° West 440 506 43,000  Level Honolulu Center
Wed 06:04:07 PM 22.5667 -154.6667 255° West 440 506 43,000  Level Honolulu Center
Wed 06:05:07 PM 22.5500 -154.8000 262° West 440 506 43,000  Level Honolulu Center
Wed 06:06:07 PM 22.5167 -154.9333 255° West 440 506 43,000  Level Honolulu Center
Wed 06:07:08 PM 22.5000 -155.0500 261° West 450 518 43,000  Level Honolulu Center
Wed 06:08:08 PM 22.4833 -155.1833 262° West 440 506 43,000  Level Honolulu Center
Wed 06:09:08 PM 22.4500 -155.3167 255° West 450 518 43,000  Level Honolulu Center
Wed 06:10:09 PM 22.4333 -155.4500 262° West 440 506 43,000  Level Honolulu Center
Wed 06:11:09 PM 22.4167 -155.5833 262° West 450 518 43,000  Level Honolulu Center
Wed 06:12:09 PM 22.3833 -155.7167 255° West 450 518 43,000  Level Honolulu Center
Wed 06:13:10 PM 22.3667 -155.8500 262° West 440 506 43,000  Level Honolulu Center
Wed 06:14:10 PM 22.3333 -155.9833 255° West 450 518 43,000  Level Honolulu Center
Wed 06:15:11 PM 22.3167 -156.1167 262° West 440 506 43,000  Level Honolulu Center
Wed 06:16:11 PM 22.3000 -156.2333 261° West 450 518 43,000  Level Honolulu Center
Wed 06:17:12 PM 22.2667 -156.3667 255° West 450 518 43,000  Level Honolulu Center
Wed 06:18:12 PM 22.2500 -156.5000 262° West 450 518 43,000  Level Honolulu Center
Wed 06:19:12 PM 22.2167 -156.6667 258° West 450 518 43,000  Level Honolulu Center
Wed 06:20:12 PM 22.2000 -156.7667 260° West 450 518 43,000  Level Honolulu Center
Wed 06:21:13 PM 22.1667 -156.9000 255° West 450 518 43,000  Level Honolulu Center
Wed 06:22:13 PM 22.1500 -157.0333 262° West 450 518 43,000 -550 Level Honolulu Center
Wed 06:23:13 PM 22.1167 -157.1667 255° West 450 518 41,900 -1,736 Descending Honolulu Center
Wed 06:24:14 PM 22.1000 -157.3333 264° West 450 518 39,500 -2,479 Descending Honolulu Center
Wed 06:25:14 PM 22.0667 -157.4667 255° West 450 518 36,900 -2,182 Descending Honolulu Center
Wed 06:26:15 PM 22.0500 -157.6000 262° West 460 529 35,100 -1,388 Descending Honolulu Center
Wed 06:27:15 PM 22.0167 -157.7333 255° West 480 552 34,100 -1,785 Descending Honolulu Center
Wed 06:28:16 PM 22.0000 -157.8667 262° West 490 564 31,500 -2,628 Descending Honolulu Center
Wed 06:29:16 PM 21.9667 -158.0167 257° West 480 552 28,800 -2,700 Descending Honolulu Center
Wed 06:30:16 PM 21.9333 -158.1500 255° West 480 552 26,100 -2,678 Descending Honolulu Center
Wed 06:31:17 PM 21.9167 -158.3000 263° West 470 541 23,400 -2,628 Descending Honolulu Center
Wed 06:32:17 PM 21.8833 -158.4333 255° West 450 518 20,800 -2,650 Descending Honolulu Center
Wed 06:33:17 PM 21.8667 -158.5500 261° West 440 506 18,100 -2,926 Descending Honolulu Center
Wed 06:34:18 PM 21.8333 -158.6667 253° West 410 472 14,900 -2,550 Descending Honolulu Center
Wed 06:35:17 PM 21.8167 -158.7833 261° West 370 426 13,000 -1,900 Descending Honolulu Center
Wed 06:36:18 PM 21.8000 -158.8833 260° West 340 391 11,100 -1,884 Descending Honolulu Center
Wed 06:37:18 PM 21.7833 -158.9833 260° West 310 357 9,200 -1,850 Descending Honolulu Center
Wed 06:38:18 PM 21.7667 -159.0667 258° West 290 334 7,400 -1,785 Descending Honolulu Center
Wed 06:39:19 PM 21.7500 -159.1500 258° West 280 322 5,600 -1,785 Descending Honolulu Center
Wed 06:40:19 PM 21.7333 -159.2333 258° West 270 311 3,800 -1,300 Descending Honolulu Center
Wed 06:41:19 PM 21.7667 -159.3000 298° West 250 288 3,000 -496 Descending Honolulu Center
Wed 06:42:20 PM 21.8167 -159.3333 328° Northwest 210 242 2,800 -545 Descending Honolulu Center
Wed 06:43:20 PM 21.8667 -159.3333 360° North 160 184 1,900 -800 Descending Honolulu Center
Wed 06:44:20 PM 21.9000 -159.3333 360° North 130 150 1,200 -645 Descending Honolulu Center
Wed 06:45:21 PM 21.9333 -159.3333 360° North 120 138 600 -590 Descending Honolulu Center

Login

Don't have an account? Register now (free) for customized features, flight alerts, and more!